Airfield :







YOU CAN JOIN US ON...

 
LOGIN :

Register | Disclaimer

   EN    FR    IT 

 









Legend :    VFR   Marginal VFR   IFR   Intensive IFR   Very Intensive IFR
Visi :
Ceiling :
>= 8 km
>= 3000ft
5 to 8 km
1000 to 3000 ft
1500m to 5 km
500 to 1000 ft
800 to 1500m
200 to 500 ft
< 800m
< 200 ft
Symbols :   Thunderstorms  Fog  Heavy snow  Heavy precipitations  Wind > 20 kt






- Airport Elevation : 522 ft
- IATA code : YBG


CYBG - CFB Bagotville

CURRENT METAR :
  • 020237Z 36002KT 15SM BKN020 OVC040 M03/M05 A3009 RMK SC6SC2 DENSITY ALT -1807FT SLP198

EXPIRED METARs :
  • 020200Z 34004KT 15SM -SHSN BKN018 OVC040 M03/M05 A3008 RMK SC6SC2 DENSITY ALT -1782FT PCPN VRY LGT SLP197
  • 020100Z 36003KT 15SM -SHSN BKN016 OVC040 M03/M05 A3008 RMK SC7SC1 DENSITY ALT -1703FT PCPN VRY LGT SLP197
  • 020000Z 36005KT 15SM -SHSN BKN015 OVC040 M03/M05 A3007 RMK SC6SC2 DENSITY ALT -1692FT PCPN VRY LGT SLP192
  • 012300Z 36004KT 15SM -SHSN BKN015 OVC040 M03/M05 A3006 RMK SC6SC2 DENSITY ALT -1666FT PCPN VRY LGT SLP189
  • 012200Z 32006KT 15SM -SHSN BKN014 OVC060 M02/M04 A3005 RMK SC7SC1 DENSITY ALT -1586FT PCPN VRY LGT SLP184
  • 012130Z 29005KT 15SM -SHSN BKN014 M02/M04 A3005 RMK SC7 DENSITY ALT -1586FT PCPN VRY LGT SLP184

TAF TAF CYBG
Valid from the 02 at 00:00 until the 03 at 00:00 UTC


012340Z 0200/0224 36005KT P6SM -SHSN BKN015 OVC030
TEMPO 0200/0206 P6SM NSW SCT015 BKN020 OVC040
FM020600 VRB03KT P6SM -SHSN FEW002 SCT008 OVC010
TEMPO 0206/0215 P6SM NSW BKN015 OVC020
FM021500 30006KT P6SM -SHSN FEW005 SCT015 OVC025 RMK NXT FCST BY 020300Z
CZUL FIR / North America



MET'MAP, your aeronautical weather chart ! - Copyright ORBIFLY December 2007 - Disclaimer

ORBIFLY MET'MAP TEAM :

Programming & Development : Alexandra Zaïnal
Original concept : Baudouin d'Aumeries
Technical & hardware support : Manuel Goepfert
Assistance : Marc-Olivier Méhu




SOURCES & CREDITS :

   NOAA